sensor_id;sensor_type;location;lat;lon;timestamp;P1;durP1;ratioP1;P2;durP2;ratioP2
10823;SDS011;39116;59.332;18.034;2023-03-13T00:02:09;2.40;;;1.00;;
10823;SDS011;39116;59.332;18.034;2023-03-13T00:04:31;2.73;;;1.00;;
10823;SDS011;39116;59.332;18.034;2023-03-13T00:06:53;2.60;;;1.00;;
10823;SDS011;39116;59.332;18.034;2023-03-13T00:09:15;2.40;;;1.00;;
10823;SDS011;39116;59.332;18.034;2023-03-13T00:11:37;2.53;;;1.17;;
10823;SDS011;39116;59.332;18.034;2023-03-13T00:14:02;1.90;;;0.97;;
10823;SDS011;39116;59.332;18.034;2023-03-13T00:16:25;3.43;;;0.90;;
10823;SDS011;39116;59.332;18.034;2023-03-13T00:18:48;2.93;;;1.13;;
10823;SDS011;39116;59.332;18.034;2023-03-13T00:21:12;2.17;;;1.00;;
10823;SDS011;39116;59.332;18.034;2023-03-13T00:23:34;5.40;;;1.07;;
10823;SDS011;39116;59.332;18.034;2023-03-13T00:25:58;1.13;;;0.90;;
10823;SDS011;39116;59.332;18.034;2023-03-13T00:28:21;1.63;;;0.77;;
10823;SDS011;39116;59.332;18.034;2023-03-13T00:30:44;1.80;;;1.03;;
10823;SDS011;39116;59.332;18.034;2023-03-13T00:33:06;1.07;;;0.83;;
10823;SDS011;39116;59.332;18.034;2023-03-13T00:35:28;0.97;;;0.80;;
10823;SDS011;39116;59.332;18.034;2023-03-13T00:37:50;1.80;;;0.90;;
10823;SDS011;39116;59.332;18.034;2023-03-13T00:40:12;3.67;;;0.83;;
10823;SDS011;39116;59.332;18.034;2023-03-13T00:42:34;3.80;;;0.90;;
10823;SDS011;39116;59.332;18.034;2023-03-13T00:44:56;1.63;;;0.93;;
10823;SDS011;39116;59.332;18.034;2023-03-13T00:47:19;1.83;;;0.90;;
10823;SDS011;39116;59.332;18.034;2023-03-13T00:49:41;1.60;;;0.80;;
10823;SDS011;39116;59.332;18.034;2023-03-13T00:52:03;1.40;;;0.80;;
10823;SDS011;39116;59.332;18.034;2023-03-13T00:54:25;0.77;;;0.73;;
10823;SDS011;39116;59.332;18.034;2023-03-13T00:56:47;0.93;;;0.67;;
10823;SDS011;39116;59.332;18.034;2023-03-13T00:59:09;2.27;;;1.00;;
10823;SDS011;39116;59.332;18.034;2023-03-13T01:01:31;2.77;;;1.00;;
10823;SDS011;39116;59.332;18.034;2023-03-13T01:03:56;1.87;;;1.00;;
10823;SDS011;39116;59.332;18.034;2023-03-13T01:06:20;1.37;;;0.90;;
10823;SDS011;39116;59.332;18.034;2023-03-13T01:08:43;2.13;;;1.00;;
10823;SDS011;39116;59.332;18.034;2023-03-13T01:11:06;2.23;;;1.30;;
10823;SDS011;39116;59.332;18.034;2023-03-13T01:13:29;1.40;;;0.90;;
10823;SDS011;39116;59.332;18.034;2023-03-13T01:15:53;2.50;;;1.00;;
10823;SDS011;39116;59.332;18.034;2023-03-13T01:18:15;1.77;;;0.83;;
10823;SDS011;39116;59.332;18.034;2023-03-13T01:20:39;2.90;;;0.93;;
10823;SDS011;39116;59.332;18.034;2023-03-13T01:23:01;1.53;;;1.00;;
10823;SDS011;39116;59.332;18.034;2023-03-13T01:25:23;2.07;;;0.90;;
10823;SDS011;39116;59.332;18.034;2023-03-13T01:27:45;2.83;;;1.00;;
10823;SDS011;39116;59.332;18.034;2023-03-13T01:30:08;2.97;;;1.03;;
10823;SDS011;39116;59.332;18.034;2023-03-13T01:32:32;2.30;;;1.07;;
10823;SDS011;39116;59.332;18.034;2023-03-13T01:34:55;3.47;;;1.00;;
10823;SDS011;39116;59.332;18.034;2023-03-13T01:37:18;2.60;;;1.10;;
10823;SDS011;39116;59.332;18.034;2023-03-13T01:39:40;1.30;;;1.20;;
10823;SDS011;39116;59.332;18.034;2023-03-13T01:42:02;2.10;;;1.10;;
10823;SDS011;39116;59.332;18.034;2023-03-13T01:44:25;2.90;;;1.00;;
10823;SDS011;39116;59.332;18.034;2023-03-13T01:46:47;1.80;;;1.10;;
10823;SDS011;39116;59.332;18.034;2023-03-13T01:49:09;4.73;;;1.43;;
10823;SDS011;39116;59.332;18.034;2023-03-13T01:51:35;1.30;;;0.90;;
10823;SDS011;39116;59.332;18.034;2023-03-13T01:54:03;1.33;;;1.07;;
10823;SDS011;39116;59.332;18.034;2023-03-13T01:56:30;2.83;;;1.10;;
10823;SDS011;39116;59.332;18.034;2023-03-13T01:58:57;3.17;;;1.30;;
10823;SDS011;39116;59.332;18.034;2023-03-13T02:01:20;2.27;;;1.00;;
10823;SDS011;39116;59.332;18.034;2023-03-13T02:03:42;4.10;;;1.40;;
10823;SDS011;39116;59.332;18.034;2023-03-13T02:06:05;2.10;;;1.30;;
10823;SDS011;39116;59.332;18.034;2023-03-13T02:08:29;3.53;;;1.43;;
10823;SDS011;39116;59.332;18.034;2023-03-13T02:10:55;4.07;;;1.10;;
10823;SDS011;39116;59.332;18.034;2023-03-13T02:13:23;1.53;;;1.10;;
10823;SDS011;39116;59.332;18.034;2023-03-13T02:15:46;1.43;;;1.10;;
10823;SDS011;39116;59.332;18.034;2023-03-13T02:18:08;2.90;;;1.40;;
10823;SDS011;39116;59.332;18.034;2023-03-13T02:20:31;2.83;;;1.37;;
10823;SDS011;39116;59.332;18.034;2023-03-13T02:22:53;2.30;;;1.47;;
10823;SDS011;39116;59.332;18.034;2023-03-13T02:25:28;2.83;;;1.30;;
10823;SDS011;39116;59.332;18.034;2023-03-13T02:27:56;1.57;;;1.07;;
10823;SDS011;39116;59.332;18.034;2023-03-13T02:30:21;1.80;;;1.20;;
10823;SDS011;39116;59.332;18.034;2023-03-13T02:32:43;2.90;;;1.17;;
10823;SDS011;39116;59.332;18.034;2023-03-13T02:35:07;3.37;;;1.30;;
10823;SDS011;39116;59.332;18.034;2023-03-13T02:37:31;2.17;;;1.30;;
10823;SDS011;39116;59.332;18.034;2023-03-13T02:39:54;3.13;;;1.30;;
10823;SDS011;39116;59.332;18.034;2023-03-13T02:42:19;2.30;;;1.23;;
10823;SDS011;39116;59.332;18.034;2023-03-13T02:44:44;2.57;;;1.40;;
10823;SDS011;39116;59.332;18.034;2023-03-13T02:47:07;1.77;;;1.03;;
10823;SDS011;39116;59.332;18.034;2023-03-13T02:49:30;3.60;;;1.53;;
10823;SDS011;39116;59.332;18.034;2023-03-13T02:51:52;3.33;;;1.23;;
10823;SDS011;39116;59.332;18.034;2023-03-13T02:54:16;1.97;;;1.10;;
10823;SDS011;39116;59.332;18.034;2023-03-13T02:56:41;3.60;;;1.33;;
10823;SDS011;39116;59.332;18.034;2023-03-13T02:59:07;1.63;;;1.30;;
10823;SDS011;39116;59.332;18.034;2023-03-13T03:01:29;4.47;;;1.40;;
10823;SDS011;39116;59.332;18.034;2023-03-13T03:03:52;2.47;;;1.50;;
10823;SDS011;39116;59.332;18.034;2023-03-13T03:06:14;5.33;;;1.30;;
10823;SDS011;39116;59.332;18.034;2023-03-13T03:08:35;2.60;;;1.27;;
10823;SDS011;39116;59.332;18.034;2023-03-13T03:11:00;3.90;;;1.10;;
10823;SDS011;39116;59.332;18.034;2023-03-13T03:13:23;3.07;;;1.77;;
10823;SDS011;39116;59.332;18.034;2023-03-13T03:15:46;3.67;;;1.30;;
10823;SDS011;39116;59.332;18.034;2023-03-13T03:18:08;3.13;;;1.27;;
10823;SDS011;39116;59.332;18.034;2023-03-13T03:20:30;4.00;;;1.40;;
10823;SDS011;39116;59.332;18.034;2023-03-13T03:22:52;2.10;;;1.20;;
10823;SDS011;39116;59.332;18.034;2023-03-13T03:25:14;2.90;;;1.33;;
10823;SDS011;39116;59.332;18.034;2023-03-13T03:27:36;4.43;;;1.20;;
10823;SDS011;39116;59.332;18.034;2023-03-13T03:29:58;2.93;;;1.10;;
10823;SDS011;39116;59.332;18.034;2023-03-13T03:32:21;1.40;;;1.20;;
10823;SDS011;39116;59.332;18.034;2023-03-13T03:34:43;1.53;;;1.10;;
10823;SDS011;39116;59.332;18.034;2023-03-13T03:37:05;1.87;;;1.00;;
10823;SDS011;39116;59.332;18.034;2023-03-13T03:39:27;2.90;;;1.10;;
10823;SDS011;39116;59.332;18.034;2023-03-13T03:41:49;1.60;;;1.30;;
10823;SDS011;39116;59.332;18.034;2023-03-13T03:44:11;2.30;;;1.27;;
10823;SDS011;39116;59.332;18.034;2023-03-13T03:46:33;2.30;;;1.00;;
10823;SDS011;39116;59.332;18.034;2023-03-13T03:48:56;2.10;;;1.10;;
10823;SDS011;39116;59.332;18.034;2023-03-13T03:51:18;2.23;;;1.03;;
10823;SDS011;39116;59.332;18.034;2023-03-13T03:53:40;3.33;;;1.23;;
10823;SDS011;39116;59.332;18.034;2023-03-13T03:56:02;1.50;;;0.90;;
10823;SDS011;39116;59.332;18.034;2023-03-13T03:58:24;1.63;;;1.17;;
10823;SDS011;39116;59.332;18.034;2023-03-13T04:00:46;3.13;;;1.20;;
10823;SDS011;39116;59.332;18.034;2023-03-13T04:03:08;3.23;;;1.03;;
10823;SDS011;39116;59.332;18.034;2023-03-13T04:05:31;3.63;;;1.20;;
10823;SDS011;39116;59.332;18.034;2023-03-13T04:07:53;2.10;;;1.10;;
10823;SDS011;39116;59.332;18.034;2023-03-13T04:10:15;3.20;;;0.90;;
10823;SDS011;39116;59.332;18.034;2023-03-13T04:12:38;2.57;;;1.20;;
10823;SDS011;39116;59.332;18.034;2023-03-13T04:15:00;3.07;;;1.10;;
10823;SDS011;39116;59.332;18.034;2023-03-13T04:17:22;2.40;;;1.17;;
10823;SDS011;39116;59.332;18.034;2023-03-13T04:19:43;4.93;;;1.30;;
10823;SDS011;39116;59.332;18.034;2023-03-13T04:22:07;2.23;;;1.03;;
10823;SDS011;39116;59.332;18.034;2023-03-13T04:24:29;3.37;;;1.40;;
10823;SDS011;39116;59.332;18.034;2023-03-13T04:26:51;1.83;;;0.90;;
10823;SDS011;39116;59.332;18.034;2023-03-13T04:29:12;3.80;;;1.33;;
10823;SDS011;39116;59.332;18.034;2023-03-13T04:31:34;4.53;;;1.40;;
10823;SDS011;39116;59.332;18.034;2023-03-13T04:33:56;2.47;;;1.00;;
10823;SDS011;39116;59.332;18.034;2023-03-13T04:36:18;4.27;;;1.00;;
10823;SDS011;39116;59.332;18.034;2023-03-13T04:38:41;5.33;;;1.20;;
10823;SDS011;39116;59.332;18.034;2023-03-13T04:41:03;5.30;;;1.17;;
10823;SDS011;39116;59.332;18.034;2023-03-13T04:43:25;1.20;;;1.03;;
10823;SDS011;39116;59.332;18.034;2023-03-13T04:45:47;2.40;;;1.13;;
10823;SDS011;39116;59.332;18.034;2023-03-13T04:48:13;1.97;;;1.20;;
10823;SDS011;39116;59.332;18.034;2023-03-13T04:50:35;1.73;;;0.87;;
10823;SDS011;39116;59.332;18.034;2023-03-13T04:52:57;3.87;;;0.90;;
10823;SDS011;39116;59.332;18.034;2023-03-13T04:55:20;4.40;;;1.50;;
10823;SDS011;39116;59.332;18.034;2023-03-13T04:57:42;3.50;;;1.20;;
10823;SDS011;39116;59.332;18.034;2023-03-13T05:00:05;2.73;;;1.50;;
10823;SDS011;39116;59.332;18.034;2023-03-13T05:02:29;3.93;;;1.60;;
10823;SDS011;39116;59.332;18.034;2023-03-13T05:04:51;5.50;;;1.57;;
10823;SDS011;39116;59.332;18.034;2023-03-13T05:07:13;3.40;;;1.60;;
10823;SDS011;39116;59.332;18.034;2023-03-13T05:09:34;2.53;;;1.10;;
10823;SDS011;39116;59.332;18.034;2023-03-13T05:11:58;4.27;;;1.40;;
10823;SDS011;39116;59.332;18.034;2023-03-13T05:14:20;4.77;;;1.60;;
10823;SDS011;39116;59.332;18.034;2023-03-13T05:16:42;2.90;;;1.20;;
10823;SDS011;39116;59.332;18.034;2023-03-13T05:19:03;5.57;;;1.30;;
10823;SDS011;39116;59.332;18.034;2023-03-13T05:21:25;4.47;;;1.93;;
10823;SDS011;39116;59.332;18.034;2023-03-13T05:23:47;5.37;;;1.43;;
10823;SDS011;39116;59.332;18.034;2023-03-13T05:26:09;1.47;;;1.00;;
10823;SDS011;39116;59.332;18.034;2023-03-13T05:28:32;2.47;;;1.30;;
10823;SDS011;39116;59.332;18.034;2023-03-13T05:30:54;3.83;;;1.20;;
10823;SDS011;39116;59.332;18.034;2023-03-13T05:33:16;4.23;;;1.30;;
10823;SDS011;39116;59.332;18.034;2023-03-13T05:35:38;3.53;;;1.10;;
10823;SDS011;39116;59.332;18.034;2023-03-13T05:38:00;3.00;;;1.33;;
10823;SDS011;39116;59.332;18.034;2023-03-13T05:40:22;4.40;;;0.97;;
10823;SDS011;39116;59.332;18.034;2023-03-13T05:42:44;3.33;;;1.37;;
10823;SDS011;39116;59.332;18.034;2023-03-13T05:45:08;3.20;;;1.37;;
10823;SDS011;39116;59.332;18.034;2023-03-13T05:47:31;2.60;;;1.20;;
10823;SDS011;39116;59.332;18.034;2023-03-13T05:49:53;1.90;;;1.20;;
10823;SDS011;39116;59.332;18.034;2023-03-13T05:52:15;1.90;;;1.10;;
10823;SDS011;39116;59.332;18.034;2023-03-13T05:54:36;2.93;;;1.07;;
10823;SDS011;39116;59.332;18.034;2023-03-13T05:56:58;2.27;;;0.90;;
10823;SDS011;39116;59.332;18.034;2023-03-13T05:59:20;2.00;;;1.30;;
10823;SDS011;39116;59.332;18.034;2023-03-13T06:01:44;2.67;;;1.10;;
10823;SDS011;39116;59.332;18.034;2023-03-13T06:04:05;3.20;;;1.27;;
10823;SDS011;39116;59.332;18.034;2023-03-13T06:06:27;1.53;;;1.10;;
10823;SDS011;39116;59.332;18.034;2023-03-13T06:08:50;1.70;;;0.93;;
10823;SDS011;39116;59.332;18.034;2023-03-13T06:11:12;2.73;;;0.93;;
10823;SDS011;39116;59.332;18.034;2023-03-13T06:13:34;1.77;;;0.90;;
10823;SDS011;39116;59.332;18.034;2023-03-13T06:15:56;3.60;;;1.00;;
10823;SDS011;39116;59.332;18.034;2023-03-13T06:18:20;1.87;;;1.00;;
10823;SDS011;39116;59.332;18.034;2023-03-13T06:20:43;5.67;;;1.10;;
10823;SDS011;39116;59.332;18.034;2023-03-13T06:23:05;3.00;;;1.40;;
10823;SDS011;39116;59.332;18.034;2023-03-13T06:25:27;3.70;;;1.00;;
10823;SDS011;39116;59.332;18.034;2023-03-13T06:27:48;5.90;;;1.10;;
10823;SDS011;39116;59.332;18.034;2023-03-13T06:30:11;2.00;;;1.17;;
10823;SDS011;39116;59.332;18.034;2023-03-13T06:32:33;2.77;;;1.13;;
10823;SDS011;39116;59.332;18.034;2023-03-13T06:34:56;5.03;;;1.20;;
10823;SDS011;39116;59.332;18.034;2023-03-13T06:37:18;3.67;;;0.97;;
10823;SDS011;39116;59.332;18.034;2023-03-13T06:39:40;3.03;;;1.00;;
10823;SDS011;39116;59.332;18.034;2023-03-13T06:42:02;2.90;;;1.03;;
10823;SDS011;39116;59.332;18.034;2023-03-13T06:44:25;3.20;;;1.10;;
10823;SDS011;39116;59.332;18.034;2023-03-13T06:46:47;4.10;;;0.90;;
10823;SDS011;39116;59.332;18.034;2023-03-13T06:49:09;1.33;;;1.03;;
10823;SDS011;39116;59.332;18.034;2023-03-13T06:51:32;4.50;;;0.97;;
10823;SDS011;39116;59.332;18.034;2023-03-13T06:53:54;1.50;;;1.07;;
10823;SDS011;39116;59.332;18.034;2023-03-13T06:56:16;3.40;;;0.80;;
10823;SDS011;39116;59.332;18.034;2023-03-13T06:58:38;3.17;;;1.20;;
10823;SDS011;39116;59.332;18.034;2023-03-13T07:01:04;2.20;;;1.20;;
10823;SDS011;39116;59.332;18.034;2023-03-13T07:03:27;3.93;;;1.13;;
10823;SDS011;39116;59.332;18.034;2023-03-13T07:05:54;3.20;;;1.10;;
10823;SDS011;39116;59.332;18.034;2023-03-13T07:08:17;4.37;;;1.20;;
10823;SDS011;39116;59.332;18.034;2023-03-13T07:10:41;3.03;;;1.00;;
10823;SDS011;39116;59.332;18.034;2023-03-13T07:13:03;1.97;;;0.80;;
10823;SDS011;39116;59.332;18.034;2023-03-13T07:15:25;2.90;;;0.90;;
10823;SDS011;39116;59.332;18.034;2023-03-13T07:17:47;2.80;;;1.10;;
10823;SDS011;39116;59.332;18.034;2023-03-13T07:20:10;3.57;;;1.03;;
10823;SDS011;39116;59.332;18.034;2023-03-13T07:22:32;5.43;;;1.30;;
10823;SDS011;39116;59.332;18.034;2023-03-13T07:24:56;4.50;;;1.30;;
10823;SDS011;39116;59.332;18.034;2023-03-13T07:27:18;3.50;;;1.00;;
10823;SDS011;39116;59.332;18.034;2023-03-13T07:29:41;3.23;;;1.10;;
10823;SDS011;39116;59.332;18.034;2023-03-13T07:32:03;1.63;;;0.97;;
10823;SDS011;39116;59.332;18.034;2023-03-13T07:34:26;3.67;;;0.80;;
10823;SDS011;39116;59.332;18.034;2023-03-13T07:36:48;4.77;;;0.90;;
10823;SDS011;39116;59.332;18.034;2023-03-13T07:39:10;2.87;;;0.77;;
10823;SDS011;39116;59.332;18.034;2023-03-13T07:41:33;2.20;;;0.77;;
10823;SDS011;39116;59.332;18.034;2023-03-13T07:43:55;1.60;;;0.80;;
10823;SDS011;39116;59.332;18.034;2023-03-13T07:46:17;7.77;;;1.23;;
10823;SDS011;39116;59.332;18.034;2023-03-13T07:48:41;4.27;;;1.40;;
10823;SDS011;39116;59.332;18.034;2023-03-13T07:51:04;2.07;;;1.00;;
10823;SDS011;39116;59.332;18.034;2023-03-13T07:53:28;2.40;;;1.03;;
10823;SDS011;39116;59.332;18.034;2023-03-13T07:55:51;2.43;;;1.00;;
10823;SDS011;39116;59.332;18.034;2023-03-13T07:58:17;5.83;;;1.00;;
10823;SDS011;39116;59.332;18.034;2023-03-13T08:00:39;6.07;;;1.10;;
10823;SDS011;39116;59.332;18.034;2023-03-13T08:03:01;2.17;;;1.00;;
10823;SDS011;39116;59.332;18.034;2023-03-13T08:05:25;3.53;;;0.90;;
10823;SDS011;39116;59.332;18.034;2023-03-13T08:07:47;4.40;;;0.93;;
10823;SDS011;39116;59.332;18.034;2023-03-13T08:10:10;4.70;;;1.17;;
10823;SDS011;39116;59.332;18.034;2023-03-13T08:12:32;1.73;;;1.00;;
10823;SDS011;39116;59.332;18.034;2023-03-13T08:14:55;4.33;;;1.03;;
10823;SDS011;39116;59.332;18.034;2023-03-13T08:17:17;3.67;;;1.10;;
10823;SDS011;39116;59.332;18.034;2023-03-13T08:19:39;5.53;;;1.50;;
10823;SDS011;39116;59.332;18.034;2023-03-13T08:22:01;2.23;;;1.00;;
10823;SDS011;39116;59.332;18.034;2023-03-13T08:24:23;4.17;;;1.13;;
10823;SDS011;39116;59.332;18.034;2023-03-13T08:26:45;4.83;;;1.10;;
10823;SDS011;39116;59.332;18.034;2023-03-13T08:29:08;3.13;;;1.13;;
10823;SDS011;39116;59.332;18.034;2023-03-13T08:31:33;4.67;;;0.97;;
10823;SDS011;39116;59.332;18.034;2023-03-13T08:33:56;5.07;;;1.53;;
10823;SDS011;39116;59.332;18.034;2023-03-13T08:36:19;6.03;;;1.20;;
10823;SDS011;39116;59.332;18.034;2023-03-13T08:38:44;2.53;;;1.00;;
10823;SDS011;39116;59.332;18.034;2023-03-13T08:41:07;5.23;;;1.50;;
10823;SDS011;39116;59.332;18.034;2023-03-13T08:43:29;5.00;;;1.20;;
10823;SDS011;39116;59.332;18.034;2023-03-13T08:45:53;6.43;;;1.30;;
10823;SDS011;39116;59.332;18.034;2023-03-13T08:48:16;3.60;;;1.30;;
10823;SDS011;39116;59.332;18.034;2023-03-13T08:50:38;3.60;;;1.23;;
10823;SDS011;39116;59.332;18.034;2023-03-13T08:53:01;4.17;;;1.07;;
10823;SDS011;39116;59.332;18.034;2023-03-13T08:55:23;2.33;;;1.27;;
10823;SDS011;39116;59.332;18.034;2023-03-13T08:57:45;5.10;;;1.60;;
10823;SDS011;39116;59.332;18.034;2023-03-13T09:00:07;2.70;;;1.30;;
10823;SDS011;39116;59.332;18.034;2023-03-13T09:02:32;5.67;;;1.37;;
10823;SDS011;39116;59.332;18.034;2023-03-13T09:04:55;5.07;;;1.83;;
10823;SDS011;39116;59.332;18.034;2023-03-13T09:07:17;4.57;;;1.43;;
10823;SDS011;39116;59.332;18.034;2023-03-13T09:09:39;3.70;;;1.70;;
10823;SDS011;39116;59.332;18.034;2023-03-13T09:12:02;5.57;;;1.33;;
10823;SDS011;39116;59.332;18.034;2023-03-13T09:14:24;3.90;;;1.50;;
10823;SDS011;39116;59.332;18.034;2023-03-13T09:16:46;1.77;;;1.33;;
10823;SDS011;39116;59.332;18.034;2023-03-13T09:19:09;4.80;;;1.70;;
10823;SDS011;39116;59.332;18.034;2023-03-13T09:21:33;2.77;;;1.50;;
10823;SDS011;39116;59.332;18.034;2023-03-13T09:23:56;3.53;;;1.50;;
10823;SDS011;39116;59.332;18.034;2023-03-13T09:26:18;4.10;;;1.60;;
10823;SDS011;39116;59.332;18.034;2023-03-13T09:28:42;3.63;;;1.30;;
10823;SDS011;39116;59.332;18.034;2023-03-13T09:31:07;5.27;;;1.70;;
10823;SDS011;39116;59.332;18.034;2023-03-13T09:33:30;3.67;;;1.40;;
10823;SDS011;39116;59.332;18.034;2023-03-13T09:35:52;5.33;;;1.50;;
10823;SDS011;39116;59.332;18.034;2023-03-13T09:38:15;2.70;;;1.57;;
10823;SDS011;39116;59.332;18.034;2023-03-13T09:40:39;3.53;;;1.50;;
10823;SDS011;39116;59.332;18.034;2023-03-13T09:43:10;2.63;;;1.50;;
10823;SDS011;39116;59.332;18.034;2023-03-13T09:45:42;4.33;;;1.47;;
10823;SDS011;39116;59.332;18.034;2023-03-13T09:48:07;3.05;;;1.70;;
10823;SDS011;39116;59.332;18.034;2023-03-13T09:50:39;2.83;;;1.60;;
10823;SDS011;39116;59.332;18.034;2023-03-13T09:53:05;2.87;;;1.40;;
10823;SDS011;39116;59.332;18.034;2023-03-13T09:55:35;3.17;;;1.73;;
10823;SDS011;39116;59.332;18.034;2023-03-13T09:57:59;3.73;;;1.40;;
10823;SDS011;39116;59.332;18.034;2023-03-13T10:00:25;2.60;;;1.80;;
10823;SDS011;39116;59.332;18.034;2023-03-13T10:02:53;2.30;;;1.47;;
10823;SDS011;39116;59.332;18.034;2023-03-13T10:05:18;3.20;;;1.60;;
10823;SDS011;39116;59.332;18.034;2023-03-13T10:07:42;2.53;;;1.30;;
10823;SDS011;39116;59.332;18.034;2023-03-13T10:10:06;1.97;;;1.57;;
10823;SDS011;39116;59.332;18.034;2023-03-13T10:12:36;3.70;;;1.50;;
10823;SDS011;39116;59.332;18.034;2023-03-13T10:17:58;3.57;;;1.80;;
10823;SDS011;39116;59.332;18.034;2023-03-13T10:20:22;5.17;;;1.53;;
10823;SDS011;39116;59.332;18.034;2023-03-13T10:22:46;3.13;;;1.47;;
10823;SDS011;39116;59.332;18.034;2023-03-13T10:25:18;2.73;;;1.50;;
10823;SDS011;39116;59.332;18.034;2023-03-13T10:27:49;2.90;;;1.50;;
10823;SDS011;39116;59.332;18.034;2023-03-13T10:30:17;2.30;;;1.80;;
10823;SDS011;39116;59.332;18.034;2023-03-13T10:32:43;1.50;;;1.30;;
10823;SDS011;39116;59.332;18.034;2023-03-13T10:35:05;3.77;;;1.67;;
10823;SDS011;39116;59.332;18.034;2023-03-13T10:37:39;2.57;;;1.57;;
10823;SDS011;39116;59.332;18.034;2023-03-13T10:40:10;3.07;;;1.60;;
10823;SDS011;39116;59.332;18.034;2023-03-13T10:42:34;3.10;;;1.73;;
10823;SDS011;39116;59.332;18.034;2023-03-13T10:45:05;2.57;;;1.20;;
10823;SDS011;39116;59.332;18.034;2023-03-13T10:47:29;2.43;;;1.40;;
10823;SDS011;39116;59.332;18.034;2023-03-13T10:49:55;1.60;;;1.40;;
10823;SDS011;39116;59.332;18.034;2023-03-13T10:52:28;2.00;;;1.70;;
10823;SDS011;39116;59.332;18.034;2023-03-13T10:54:55;2.93;;;1.60;;
10823;SDS011;39116;59.332;18.034;2023-03-13T10:57:26;3.13;;;1.60;;
10823;SDS011;39116;59.332;18.034;2023-03-13T10:59:49;1.93;;;1.40;;
10823;SDS011;39116;59.332;18.034;2023-03-13T11:02:20;2.47;;;1.80;;
10823;SDS011;39116;59.332;18.034;2023-03-13T11:04:45;2.90;;;1.57;;
10823;SDS011;39116;59.332;18.034;2023-03-13T11:07:13;2.70;;;1.40;;
10823;SDS011;39116;59.332;18.034;2023-03-13T11:09:40;2.67;;;1.87;;
10823;SDS011;39116;59.332;18.034;2023-03-13T11:12:03;3.13;;;1.60;;
10823;SDS011;39116;59.332;18.034;2023-03-13T11:14:27;1.90;;;1.70;;
10823;SDS011;39116;59.332;18.034;2023-03-13T11:16:50;3.27;;;1.70;;
10823;SDS011;39116;59.332;18.034;2023-03-13T11:24:52;1.83;;;1.60;;
10823;SDS011;39116;59.332;18.034;2023-03-13T11:27:24;2.90;;;1.80;;
10823;SDS011;39116;59.332;18.034;2023-03-13T11:29:55;2.43;;;1.40;;
10823;SDS011;39116;59.332;18.034;2023-03-13T11:32:25;3.73;;;1.50;;
10823;SDS011;39116;59.332;18.034;2023-03-13T11:34:56;2.73;;;1.87;;
10823;SDS011;39116;59.332;18.034;2023-03-13T11:37:20;1.97;;;1.60;;
10823;SDS011;39116;59.332;18.034;2023-03-13T11:39:47;2.17;;;1.70;;
10823;SDS011;39116;59.332;18.034;2023-03-13T11:42:25;1.83;;;1.47;;
10823;SDS011;39116;59.332;18.034;2023-03-13T11:45:01;2.07;;;1.40;;
10823;SDS011;39116;59.332;18.034;2023-03-13T11:47:34;3.17;;;1.90;;
10823;SDS011;39116;59.332;18.034;2023-03-13T11:50:00;4.43;;;1.90;;
10823;SDS011;39116;59.332;18.034;2023-03-13T11:55:27;2.97;;;2.33;;
10823;SDS011;39116;59.332;18.034;2023-03-13T11:57:56;2.83;;;1.97;;
10823;SDS011;39116;59.332;18.034;2023-03-13T12:00:30;1.70;;;1.60;;
10823;SDS011;39116;59.332;18.034;2023-03-13T12:02:58;4.83;;;1.70;;
10823;SDS011;39116;59.332;18.034;2023-03-13T12:05:26;2.93;;;1.90;;
10823;SDS011;39116;59.332;18.034;2023-03-13T12:07:52;1.60;;;1.37;;
10823;SDS011;39116;59.332;18.034;2023-03-13T12:10:21;2.47;;;1.90;;
10823;SDS011;39116;59.332;18.034;2023-03-13T12:12:48;1.93;;;1.73;;
10823;SDS011;39116;59.332;18.034;2023-03-13T12:15:18;2.03;;;1.53;;
10823;SDS011;39116;59.332;18.034;2023-03-13T12:17:45;3.03;;;1.93;;
10823;SDS011;39116;59.332;18.034;2023-03-13T12:20:12;2.03;;;1.53;;
10823;SDS011;39116;59.332;18.034;2023-03-13T12:22:44;2.13;;;1.50;;
10823;SDS011;39116;59.332;18.034;2023-03-13T12:25:14;1.73;;;1.40;;
10823;SDS011;39116;59.332;18.034;2023-03-13T12:27:42;2.70;;;1.60;;
10823;SDS011;39116;59.332;18.034;2023-03-13T12:30:13;2.40;;;1.80;;
10823;SDS011;39116;59.332;18.034;2023-03-13T12:32:44;3.20;;;1.80;;
10823;SDS011;39116;59.332;18.034;2023-03-13T12:35:17;2.00;;;1.70;;
10823;SDS011;39116;59.332;18.034;2023-03-13T12:37:44;2.57;;;1.87;;
10823;SDS011;39116;59.332;18.034;2023-03-13T12:40:15;3.57;;;1.57;;
10823;SDS011;39116;59.332;18.034;2023-03-13T12:42:44;2.70;;;1.83;;
10823;SDS011;39116;59.332;18.034;2023-03-13T12:45:13;2.87;;;1.43;;
10823;SDS011;39116;59.332;18.034;2023-03-13T12:47:42;2.77;;;1.87;;
10823;SDS011;39116;59.332;18.034;2023-03-13T12:50:27;3.33;;;1.70;;
10823;SDS011;39116;59.332;18.034;2023-03-13T12:53:12;3.23;;;1.67;;
10823;SDS011;39116;59.332;18.034;2023-03-13T12:56:16;2.47;;;1.67;;
10823;SDS011;39116;59.332;18.034;2023-03-13T12:58:49;2.00;;;1.60;;
10823;SDS011;39116;59.332;18.034;2023-03-13T13:01:16;3.77;;;1.80;;
10823;SDS011;39116;59.332;18.034;2023-03-13T13:03:50;1.87;;;1.57;;
10823;SDS011;39116;59.332;18.034;2023-03-13T13:06:14;3.57;;;2.00;;
10823;SDS011;39116;59.332;18.034;2023-03-13T13:08:39;2.73;;;1.80;;
10823;SDS011;39116;59.332;18.034;2023-03-13T13:14:05;2.40;;;1.80;;
10823;SDS011;39116;59.332;18.034;2023-03-13T13:17:19;3.07;;;2.03;;
10823;SDS011;39116;59.332;18.034;2023-03-13T13:19:47;2.63;;;2.00;;
10823;SDS011;39116;59.332;18.034;2023-03-13T13:27:51;4.00;;;2.20;;
10823;SDS011;39116;59.332;18.034;2023-03-13T13:30:29;4.37;;;2.10;;
10823;SDS011;39116;59.332;18.034;2023-03-13T13:32:52;2.73;;;2.10;;
10823;SDS011;39116;59.332;18.034;2023-03-13T13:35:19;3.10;;;2.40;;
10823;SDS011;39116;59.332;18.034;2023-03-13T13:37:43;2.93;;;2.23;;
10823;SDS011;39116;59.332;18.034;2023-03-13T13:40:16;3.83;;;2.20;;
10823;SDS011;39116;59.332;18.034;2023-03-13T13:42:49;3.23;;;2.00;;
10823;SDS011;39116;59.332;18.034;2023-03-13T13:45:23;4.27;;;2.67;;
10823;SDS011;39116;59.332;18.034;2023-03-13T13:47:49;3.13;;;2.20;;
10823;SDS011;39116;59.332;18.034;2023-03-13T13:50:15;4.20;;;2.37;;
10823;SDS011;39116;59.332;18.034;2023-03-13T13:52:38;4.03;;;2.10;;
10823;SDS011;39116;59.332;18.034;2023-03-13T13:55:02;2.07;;;1.77;;
10823;SDS011;39116;59.332;18.034;2023-03-13T13:57:51;1.83;;;1.67;;
10823;SDS011;39116;59.332;18.034;2023-03-13T14:00:21;4.90;;;2.07;;
10823;SDS011;39116;59.332;18.034;2023-03-13T14:02:47;2.83;;;2.00;;
10823;SDS011;39116;59.332;18.034;2023-03-13T14:05:14;2.87;;;1.90;;
10823;SDS011;39116;59.332;18.034;2023-03-13T14:10:29;2.50;;;2.07;;
10823;SDS011;39116;59.332;18.034;2023-03-13T14:12:57;2.57;;;1.67;;
10823;SDS011;39116;59.332;18.034;2023-03-13T14:15:21;5.23;;;1.90;;
10823;SDS011;39116;59.332;18.034;2023-03-13T14:17:45;3.30;;;1.70;;
10823;SDS011;39116;59.332;18.034;2023-03-13T14:20:17;3.60;;;2.13;;
10823;SDS011;39116;59.332;18.034;2023-03-13T14:22:49;2.30;;;1.83;;
10823;SDS011;39116;59.332;18.034;2023-03-13T14:25:12;4.40;;;2.07;;
10823;SDS011;39116;59.332;18.034;2023-03-13T14:27:34;3.23;;;1.97;;
10823;SDS011;39116;59.332;18.034;2023-03-13T14:30:06;3.30;;;1.77;;
10823;SDS011;39116;59.332;18.034;2023-03-13T14:32:29;2.70;;;1.80;;
10823;SDS011;39116;59.332;18.034;2023-03-13T14:34:51;2.67;;;1.83;;
10823;SDS011;39116;59.332;18.034;2023-03-13T14:39:56;3.13;;;1.97;;
10823;SDS011;39116;59.332;18.034;2023-03-13T14:42:28;1.93;;;1.70;;
10823;SDS011;39116;59.332;18.034;2023-03-13T14:44:59;2.63;;;1.90;;